sensor_id;sensor_type;location;lat;lon;timestamp;P1;durP1;ratioP1;P2;durP2;ratioP2
78589;SDS011;67888;50.228;7.828;2023-03-11T00:01:31;3.33;;;1.50;;
78589;SDS011;67888;50.228;7.828;2023-03-11T00:06:35;4.13;;;1.50;;
78589;SDS011;67888;50.228;7.828;2023-03-11T00:11:36;3.80;;;1.40;;
78589;SDS011;67888;50.228;7.828;2023-03-11T00:16:36;3.33;;;1.60;;
78589;SDS011;67888;50.228;7.828;2023-03-11T00:21:36;3.33;;;1.33;;
78589;SDS011;67888;50.228;7.828;2023-03-11T00:26:37;8.20;;;1.63;;
78589;SDS011;67888;50.228;7.828;2023-03-11T00:31:37;4.35;;;1.20;;
78589;SDS011;67888;50.228;7.828;2023-03-11T00:36:38;4.33;;;1.20;;
78589;SDS011;67888;50.228;7.828;2023-03-11T00:41:38;4.87;;;1.10;;
78589;SDS011;67888;50.228;7.828;2023-03-11T00:46:39;5.10;;;1.27;;
78589;SDS011;67888;50.228;7.828;2023-03-11T00:51:39;7.23;;;1.60;;
78589;SDS011;67888;50.228;7.828;2023-03-11T00:56:39;5.07;;;1.10;;
78589;SDS011;67888;50.228;7.828;2023-03-11T01:01:40;6.75;;;1.10;;
78589;SDS011;67888;50.228;7.828;2023-03-11T01:06:41;4.13;;;1.30;;
78589;SDS011;67888;50.228;7.828;2023-03-11T01:11:42;4.37;;;1.20;;
78589;SDS011;67888;50.228;7.828;2023-03-11T01:16:43;4.90;;;1.42;;
78589;SDS011;67888;50.228;7.828;2023-03-11T01:21:44;5.03;;;1.53;;
78589;SDS011;67888;50.228;7.828;2023-03-11T01:26:44;6.07;;;1.40;;
78589;SDS011;67888;50.228;7.828;2023-03-11T01:31:45;7.37;;;1.60;;
78589;SDS011;67888;50.228;7.828;2023-03-11T01:36:46;6.35;;;1.50;;
78589;SDS011;67888;50.228;7.828;2023-03-11T01:41:47;5.60;;;1.40;;
78589;SDS011;67888;50.228;7.828;2023-03-11T01:47:34;6.37;;;1.40;;
78589;SDS011;67888;50.228;7.828;2023-03-11T01:52:12;7.35;;;1.50;;
78589;SDS011;67888;50.228;7.828;2023-03-11T01:57:12;8.90;;;1.73;;
78589;SDS011;67888;50.228;7.828;2023-03-11T02:02:21;6.90;;;1.60;;
78589;SDS011;67888;50.228;7.828;2023-03-11T02:07:28;10.50;;;1.77;;
78589;SDS011;67888;50.228;7.828;2023-03-11T02:12:29;10.00;;;1.60;;
78589;SDS011;67888;50.228;7.828;2023-03-11T02:17:36;8.32;;;1.50;;
78589;SDS011;67888;50.228;7.828;2023-03-11T02:22:39;7.95;;;1.70;;
78589;SDS011;67888;50.228;7.828;2023-03-11T02:27:42;6.00;;;1.83;;
78589;SDS011;67888;50.228;7.828;2023-03-11T02:32:46;6.75;;;1.50;;
78589;SDS011;67888;50.228;7.828;2023-03-11T02:37:49;6.83;;;1.80;;
78589;SDS011;67888;50.228;7.828;2023-03-11T02:43:00;7.70;;;2.10;;
78589;SDS011;67888;50.228;7.828;2023-03-11T02:48:05;8.95;;;2.40;;
78589;SDS011;67888;50.228;7.828;2023-03-11T02:53:08;7.23;;;1.70;;
78589;SDS011;67888;50.228;7.828;2023-03-11T02:58:09;8.10;;;1.83;;
78589;SDS011;67888;50.228;7.828;2023-03-11T03:03:09;9.52;;;1.90;;
78589;SDS011;67888;50.228;7.828;2023-03-11T03:08:10;8.13;;;1.67;;
78589;SDS011;67888;50.228;7.828;2023-03-11T03:13:10;8.20;;;2.00;;
78589;SDS011;67888;50.228;7.828;2023-03-11T03:18:11;8.43;;;1.80;;
78589;SDS011;67888;50.228;7.828;2023-03-11T03:23:12;8.82;;;2.20;;
78589;SDS011;67888;50.228;7.828;2023-03-11T03:28:13;6.53;;;1.60;;
78589;SDS011;67888;50.228;7.828;2023-03-11T03:33:14;9.15;;;2.95;;
78589;SDS011;67888;50.228;7.828;2023-03-11T03:38:15;7.17;;;2.00;;
78589;SDS011;67888;50.228;7.828;2023-03-11T03:43:15;11.45;;;2.08;;
78589;SDS011;67888;50.228;7.828;2023-03-11T03:48:17;9.23;;;2.40;;
78589;SDS011;67888;50.228;7.828;2023-03-11T03:53:18;9.27;;;2.53;;
78589;SDS011;67888;50.228;7.828;2023-03-11T03:58:19;9.45;;;1.88;;
78589;SDS011;67888;50.228;7.828;2023-03-11T04:03:20;13.20;;;1.77;;
78589;SDS011;67888;50.228;7.828;2023-03-11T04:08:20;8.37;;;1.70;;
78589;SDS011;67888;50.228;7.828;2023-03-11T04:13:22;8.05;;;1.75;;
78589;SDS011;67888;50.228;7.828;2023-03-11T04:18:23;8.93;;;2.40;;
78589;SDS011;67888;50.228;7.828;2023-03-11T04:23:24;10.20;;;2.53;;
78589;SDS011;67888;50.228;7.828;2023-03-11T04:28:25;6.60;;;1.97;;
78589;SDS011;67888;50.228;7.828;2023-03-11T04:33:25;6.95;;;1.95;;
78589;SDS011;67888;50.228;7.828;2023-03-11T04:38:26;7.20;;;1.53;;
78589;SDS011;67888;50.228;7.828;2023-03-11T04:43:27;6.38;;;1.42;;
78589;SDS011;67888;50.228;7.828;2023-03-11T04:48:28;9.20;;;1.90;;
78589;SDS011;67888;50.228;7.828;2023-03-11T04:53:29;9.73;;;1.73;;
78589;SDS011;67888;50.228;7.828;2023-03-11T04:58:29;6.73;;;1.70;;
78589;SDS011;67888;50.228;7.828;2023-03-11T05:03:30;4.00;;;1.30;;
78589;SDS011;67888;50.228;7.828;2023-03-11T05:08:31;8.20;;;1.10;;
78589;SDS011;67888;50.228;7.828;2023-03-11T05:13:32;6.53;;;1.37;;
78589;SDS011;67888;50.228;7.828;2023-03-11T05:18:33;6.65;;;1.30;;
78589;SDS011;67888;50.228;7.828;2023-03-11T05:23:33;5.10;;;1.20;;
78589;SDS011;67888;50.228;7.828;2023-03-11T05:28:34;3.88;;;1.50;;
78589;SDS011;67888;50.228;7.828;2023-03-11T05:33:35;4.80;;;1.30;;
78589;SDS011;67888;50.228;7.828;2023-03-11T05:38:36;6.85;;;1.52;;
78589;SDS011;67888;50.228;7.828;2023-03-11T05:43:37;7.60;;;1.60;;
78589;SDS011;67888;50.228;7.828;2023-03-11T05:48:37;5.33;;;1.30;;
78589;SDS011;67888;50.228;7.828;2023-03-11T05:53:40;7.43;;;1.40;;
78589;SDS011;67888;50.228;7.828;2023-03-11T05:58:41;4.18;;;1.10;;
78589;SDS011;67888;50.228;7.828;2023-03-11T06:03:42;8.13;;;1.50;;
78589;SDS011;67888;50.228;7.828;2023-03-11T06:08:42;8.73;;;1.53;;
78589;SDS011;67888;50.228;7.828;2023-03-11T06:13:50;4.60;;;1.42;;
78589;SDS011;67888;50.228;7.828;2023-03-11T06:18:51;8.17;;;1.50;;
78589;SDS011;67888;50.228;7.828;2023-03-11T06:23:52;6.00;;;1.20;;
78589;SDS011;67888;50.228;7.828;2023-03-11T06:28:52;4.73;;;1.10;;
78589;SDS011;67888;50.228;7.828;2023-03-11T06:33:53;10.53;;;1.43;;
78589;SDS011;67888;50.228;7.828;2023-03-11T06:38:58;5.22;;;1.60;;
78589;SDS011;67888;50.228;7.828;2023-03-11T06:43:58;7.47;;;1.43;;
78589;SDS011;67888;50.228;7.828;2023-03-11T06:48:59;8.80;;;2.13;;
78589;SDS011;67888;50.228;7.828;2023-03-11T06:53:59;6.40;;;1.30;;
78589;SDS011;67888;50.228;7.828;2023-03-11T06:59:00;5.20;;;1.47;;
78589;SDS011;67888;50.228;7.828;2023-03-11T07:04:00;8.00;;;1.70;;
78589;SDS011;67888;50.228;7.828;2023-03-11T07:09:00;8.27;;;1.50;;
78589;SDS011;67888;50.228;7.828;2023-03-11T07:14:01;5.67;;;1.20;;
78589;SDS011;67888;50.228;7.828;2023-03-11T07:19:01;7.13;;;1.40;;
78589;SDS011;67888;50.228;7.828;2023-03-11T07:24:02;9.97;;;1.47;;
78589;SDS011;67888;50.228;7.828;2023-03-11T07:29:04;6.80;;;2.22;;
78589;SDS011;67888;50.228;7.828;2023-03-11T07:34:05;9.27;;;1.87;;
78589;SDS011;67888;50.228;7.828;2023-03-11T07:39:14;6.18;;;1.67;;
78589;SDS011;67888;50.228;7.828;2023-03-11T07:44:16;10.90;;;1.63;;
78589;SDS011;67888;50.228;7.828;2023-03-11T07:49:17;6.82;;;1.20;;
78589;SDS011;67888;50.228;7.828;2023-03-11T07:54:18;7.10;;;1.70;;
78589;SDS011;67888;50.228;7.828;2023-03-11T07:59:19;6.43;;;1.60;;
78589;SDS011;67888;50.228;7.828;2023-03-11T08:04:19;7.43;;;1.77;;
78589;SDS011;67888;50.228;7.828;2023-03-11T08:09:19;9.03;;;2.10;;
78589;SDS011;67888;50.228;7.828;2023-03-11T08:14:20;5.57;;;1.87;;
78589;SDS011;67888;50.228;7.828;2023-03-11T08:19:21;6.03;;;1.60;;
78589;SDS011;67888;50.228;7.828;2023-03-11T08:24:21;7.13;;;2.00;;
78589;SDS011;67888;50.228;7.828;2023-03-11T08:29:22;8.00;;;1.77;;
78589;SDS011;67888;50.228;7.828;2023-03-11T08:34:23;6.50;;;2.03;;
78589;SDS011;67888;50.228;7.828;2023-03-11T08:39:26;5.85;;;1.30;;
78589;SDS011;67888;50.228;7.828;2023-03-11T08:44:27;11.43;;;2.30;;
78589;SDS011;67888;50.228;7.828;2023-03-11T08:49:27;7.77;;;2.30;;
78589;SDS011;67888;50.228;7.828;2023-03-11T08:54:28;8.90;;;1.90;;
78589;SDS011;67888;50.228;7.828;2023-03-11T08:59:29;10.38;;;2.13;;
78589;SDS011;67888;50.228;7.828;2023-03-11T09:04:29;5.17;;;1.50;;
78589;SDS011;67888;50.228;7.828;2023-03-11T09:09:30;7.47;;;1.50;;
78589;SDS011;67888;50.228;7.828;2023-03-11T09:14:31;4.57;;;1.10;;
78589;SDS011;67888;50.228;7.828;2023-03-11T09:19:31;5.93;;;2.17;;
78589;SDS011;67888;50.228;7.828;2023-03-11T09:24:32;6.47;;;1.50;;
78589;SDS011;67888;50.228;7.828;2023-03-11T09:29:34;6.10;;;1.23;;
78589;SDS011;67888;50.228;7.828;2023-03-11T09:34:34;5.13;;;1.27;;
78589;SDS011;67888;50.228;7.828;2023-03-11T09:39:35;6.07;;;1.20;;
78589;SDS011;67888;50.228;7.828;2023-03-11T09:44:48;3.50;;;1.47;;
78589;SDS011;67888;50.228;7.828;2023-03-11T09:55:20;4.97;;;1.33;;
78589;SDS011;67888;50.228;7.828;2023-03-11T10:00:41;6.03;;;1.33;;
78589;SDS011;67888;50.228;7.828;2023-03-11T10:05:42;8.00;;;1.33;;
78589;SDS011;67888;50.228;7.828;2023-03-11T10:10:45;5.60;;;1.40;;
78589;SDS011;67888;50.228;7.828;2023-03-11T10:16:02;4.65;;;1.20;;
78589;SDS011;67888;50.228;7.828;2023-03-11T10:26:19;7.90;;;1.40;;
78589;SDS011;67888;50.228;7.828;2023-03-11T10:31:39;5.50;;;1.27;;
78589;SDS011;67888;50.228;7.828;2023-03-11T10:42:23;12.40;;;2.05;;
78589;SDS011;67888;50.228;7.828;2023-03-11T10:47:27;5.90;;;1.23;;
78589;SDS011;67888;50.228;7.828;2023-03-11T10:52:28;6.93;;;1.42;;
78589;SDS011;67888;50.228;7.828;2023-03-11T10:57:31;10.63;;;2.23;;
78589;SDS011;67888;50.228;7.828;2023-03-11T11:02:38;6.10;;;1.60;;
78589;SDS011;67888;50.228;7.828;2023-03-11T11:07:48;6.00;;;1.40;;
78589;SDS011;67888;50.228;7.828;2023-03-11T11:12:53;5.23;;;1.27;;
78589;SDS011;67888;50.228;7.828;2023-03-11T11:17:56;5.73;;;1.50;;
78589;SDS011;67888;50.228;7.828;2023-03-11T11:23:00;7.47;;;1.65;;
78589;SDS011;67888;50.228;7.828;2023-03-11T11:33:19;6.00;;;1.53;;
78589;SDS011;67888;50.228;7.828;2023-03-11T11:38:23;3.88;;;1.27;;
78589;SDS011;67888;50.228;7.828;2023-03-11T11:54:14;4.32;;;1.35;;
78589;SDS011;67888;50.228;7.828;2023-03-11T11:59:19;6.43;;;1.30;;
78589;SDS011;67888;50.228;7.828;2023-03-11T12:04:26;9.77;;;5.73;;
78589;SDS011;67888;50.228;7.828;2023-03-11T12:14:55;5.10;;;1.40;;
78589;SDS011;67888;50.228;7.828;2023-03-11T12:20:24;6.80;;;1.40;;
78589;SDS011;67888;50.228;7.828;2023-03-11T12:30:35;5.43;;;1.42;;
78589;SDS011;67888;50.228;7.828;2023-03-11T12:35:46;5.68;;;1.48;;
78589;SDS011;67888;50.228;7.828;2023-03-11T12:40:57;6.37;;;1.40;;
78589;SDS011;67888;50.228;7.828;2023-03-11T12:46:13;4.25;;;1.48;;
78589;SDS011;67888;50.228;7.828;2023-03-11T13:12:42;4.17;;;1.40;;
78589;SDS011;67888;50.228;7.828;2023-03-11T13:23:32;6.22;;;1.70;;
78589;SDS011;67888;50.228;7.828;2023-03-11T13:44:47;5.53;;;1.27;;
78589;SDS011;67888;50.228;7.828;2023-03-11T13:55:29;4.80;;;1.40;;
78589;SDS011;67888;50.228;7.828;2023-03-11T14:00:34;5.00;;;1.20;;
78589;SDS011;67888;50.228;7.828;2023-03-11T14:05:35;6.23;;;1.20;;
78589;SDS011;67888;50.228;7.828;2023-03-11T14:11:28;3.45;;;1.52;;
78589;SDS011;67888;50.228;7.828;2023-03-11T14:16:15;7.68;;;2.33;;
78589;SDS011;67888;50.228;7.828;2023-03-11T14:21:20;7.43;;;2.20;;
78589;SDS011;67888;50.228;7.828;2023-03-11T14:26:22;4.78;;;1.67;;
78589;SDS011;67888;50.228;7.828;2023-03-11T14:31:29;5.85;;;1.65;;
78589;SDS011;67888;50.228;7.828;2023-03-11T14:36:46;5.93;;;1.90;;
78589;SDS011;67888;50.228;7.828;2023-03-11T14:41:50;5.83;;;1.60;;
78589;SDS011;67888;50.228;7.828;2023-03-11T14:47:02;7.53;;;1.38;;
78589;SDS011;67888;50.228;7.828;2023-03-11T14:52:28;5.63;;;1.50;;
78589;SDS011;67888;50.228;7.828;2023-03-11T14:57:37;6.87;;;1.40;;
78589;SDS011;67888;50.228;7.828;2023-03-11T15:02:51;8.05;;;2.30;;
78589;SDS011;67888;50.228;7.828;2023-03-11T15:07:59;7.38;;;2.15;;
78589;SDS011;67888;50.228;7.828;2023-03-11T15:13:03;11.10;;;4.53;;
78589;SDS011;67888;50.228;7.828;2023-03-11T15:18:22;5.50;;;2.05;;
78589;SDS011;67888;50.228;7.828;2023-03-11T15:23:25;5.88;;;2.10;;
78589;SDS011;67888;50.228;7.828;2023-03-11T15:28:26;6.97;;;2.20;;
78589;SDS011;67888;50.228;7.828;2023-03-11T15:33:30;5.07;;;1.80;;
78589;SDS011;67888;50.228;7.828;2023-03-11T15:38:32;4.80;;;2.10;;
78589;SDS011;67888;50.228;7.828;2023-03-11T15:43:33;6.57;;;1.77;;
78589;SDS011;67888;50.228;7.828;2023-03-11T15:48:44;5.55;;;1.60;;
78589;SDS011;67888;50.228;7.828;2023-03-11T15:53:44;7.43;;;1.60;;
78589;SDS011;67888;50.228;7.828;2023-03-11T15:58:45;7.67;;;1.63;;
78589;SDS011;67888;50.228;7.828;2023-03-11T16:03:45;4.70;;;1.60;;
78589;SDS011;67888;50.228;7.828;2023-03-11T16:08:45;5.00;;;1.80;;
78589;SDS011;67888;50.228;7.828;2023-03-11T16:13:46;5.77;;;1.77;;
78589;SDS011;67888;50.228;7.828;2023-03-11T16:18:46;5.93;;;1.77;;
78589;SDS011;67888;50.228;7.828;2023-03-11T16:23:46;7.77;;;2.27;;
78589;SDS011;67888;50.228;7.828;2023-03-11T16:28:48;7.28;;;1.90;;
78589;SDS011;67888;50.228;7.828;2023-03-11T16:33:48;5.03;;;1.50;;
78589;SDS011;67888;50.228;7.828;2023-03-11T16:38:49;6.90;;;1.60;;
78589;SDS011;67888;50.228;7.828;2023-03-11T16:43:49;5.03;;;1.30;;
78589;SDS011;67888;50.228;7.828;2023-03-11T16:48:50;5.90;;;1.50;;
78589;SDS011;67888;50.228;7.828;2023-03-11T16:53:52;7.50;;;1.40;;
78589;SDS011;67888;50.228;7.828;2023-03-11T16:58:53;7.03;;;1.63;;
78589;SDS011;67888;50.228;7.828;2023-03-11T17:03:53;6.63;;;1.40;;
78589;SDS011;67888;50.228;7.828;2023-03-11T17:08:54;5.80;;;1.47;;
78589;SDS011;67888;50.228;7.828;2023-03-11T17:13:54;7.80;;;1.50;;
78589;SDS011;67888;50.228;7.828;2023-03-11T17:18:55;5.15;;;1.35;;
78589;SDS011;67888;50.228;7.828;2023-03-11T17:23:56;5.77;;;1.63;;
78589;SDS011;67888;50.228;7.828;2023-03-11T17:28:57;5.25;;;1.50;;
78589;SDS011;67888;50.228;7.828;2023-03-11T17:33:58;5.47;;;1.93;;
78589;SDS011;67888;50.228;7.828;2023-03-11T17:38:58;5.23;;;1.57;;
78589;SDS011;67888;50.228;7.828;2023-03-11T17:43:59;5.20;;;1.73;;
78589;SDS011;67888;50.228;7.828;2023-03-11T17:48:59;5.60;;;1.40;;
78589;SDS011;67888;50.228;7.828;2023-03-11T17:54:00;4.00;;;1.77;;
78589;SDS011;67888;50.228;7.828;2023-03-11T17:59:00;5.50;;;1.70;;
78589;SDS011;67888;50.228;7.828;2023-03-11T18:04:01;4.47;;;1.23;;
78589;SDS011;67888;50.228;7.828;2023-03-11T18:09:01;6.77;;;1.57;;
78589;SDS011;67888;50.228;7.828;2023-03-11T18:14:02;9.13;;;5.13;;
78589;SDS011;67888;50.228;7.828;2023-03-11T18:19:02;5.17;;;1.63;;
78589;SDS011;67888;50.228;7.828;2023-03-11T18:24:04;5.47;;;1.50;;
78589;SDS011;67888;50.228;7.828;2023-03-11T18:29:05;7.82;;;2.00;;
78589;SDS011;67888;50.228;7.828;2023-03-11T18:34:05;7.83;;;2.80;;
78589;SDS011;67888;50.228;7.828;2023-03-11T18:39:12;10.53;;;3.13;;
78589;SDS011;67888;50.228;7.828;2023-03-11T18:44:12;13.70;;;5.90;;
78589;SDS011;67888;50.228;7.828;2023-03-11T18:49:13;11.88;;;5.38;;
78589;SDS011;67888;50.228;7.828;2023-03-11T18:54:13;13.53;;;6.13;;
78589;SDS011;67888;50.228;7.828;2023-03-11T18:59:14;17.67;;;7.97;;
78589;SDS011;67888;50.228;7.828;2023-03-11T19:04:15;20.73;;;8.53;;
78589;SDS011;67888;50.228;7.828;2023-03-11T19:09:16;22.90;;;10.50;;
78589;SDS011;67888;50.228;7.828;2023-03-11T19:14:17;27.23;;;12.37;;
78589;SDS011;67888;50.228;7.828;2023-03-11T19:19:17;19.37;;;9.57;;
78589;SDS011;67888;50.228;7.828;2023-03-11T19:24:18;20.80;;;11.57;;
78589;SDS011;67888;50.228;7.828;2023-03-11T19:29:18;12.50;;;4.90;;
78589;SDS011;67888;50.228;7.828;2023-03-11T19:34:19;12.95;;;4.72;;
78589;SDS011;67888;50.228;7.828;2023-03-11T19:39:20;10.17;;;4.20;;
78589;SDS011;67888;50.228;7.828;2023-03-11T19:44:20;9.50;;;3.10;;
78589;SDS011;67888;50.228;7.828;2023-03-11T19:49:21;8.07;;;3.50;;
78589;SDS011;67888;50.228;7.828;2023-03-11T19:54:21;12.27;;;3.40;;
78589;SDS011;67888;50.228;7.828;2023-03-11T19:59:22;8.83;;;3.57;;
78589;SDS011;67888;50.228;7.828;2023-03-11T20:04:22;9.37;;;3.90;;
78589;SDS011;67888;50.228;7.828;2023-03-11T20:09:23;10.97;;;3.60;;
78589;SDS011;67888;50.228;7.828;2023-03-11T20:14:23;9.87;;;3.77;;
78589;SDS011;67888;50.228;7.828;2023-03-11T20:19:23;9.83;;;3.73;;
78589;SDS011;67888;50.228;7.828;2023-03-11T20:24:24;10.10;;;3.70;;
78589;SDS011;67888;50.228;7.828;2023-03-11T20:29:25;11.93;;;4.63;;
78589;SDS011;67888;50.228;7.828;2023-03-11T20:34:25;17.50;;;8.27;;
78589;SDS011;67888;50.228;7.828;2023-03-11T20:39:26;15.13;;;7.83;;
78589;SDS011;67888;50.228;7.828;2023-03-11T20:44:26;19.03;;;7.40;;
78589;SDS011;67888;50.228;7.828;2023-03-11T20:49:26;26.67;;;10.70;;
78589;SDS011;67888;50.228;7.828;2023-03-11T20:54:28;16.55;;;8.00;;
78589;SDS011;67888;50.228;7.828;2023-03-11T20:59:28;18.70;;;7.37;;
78589;SDS011;67888;50.228;7.828;2023-03-11T21:04:29;20.70;;;8.87;;
78589;SDS011;67888;50.228;7.828;2023-03-11T21:09:29;18.27;;;8.23;;
78589;SDS011;67888;50.228;7.828;2023-03-11T21:14:29;13.90;;;6.13;;
78589;SDS011;67888;50.228;7.828;2023-03-11T21:19:30;11.57;;;4.77;;
78589;SDS011;67888;50.228;7.828;2023-03-11T21:24:31;14.45;;;4.68;;
78589;SDS011;67888;50.228;7.828;2023-03-11T21:29:32;10.03;;;3.90;;
78589;SDS011;67888;50.228;7.828;2023-03-11T21:34:33;9.93;;;4.10;;
78589;SDS011;67888;50.228;7.828;2023-03-11T21:39:33;10.80;;;4.50;;
78589;SDS011;67888;50.228;7.828;2023-03-11T21:44:33;9.97;;;3.80;;
78589;SDS011;67888;50.228;7.828;2023-03-11T21:49:34;11.67;;;4.63;;
78589;SDS011;67888;50.228;7.828;2023-03-11T21:54:34;16.47;;;5.83;;
78589;SDS011;67888;50.228;7.828;2023-03-11T21:59:36;14.03;;;5.93;;
78589;SDS011;67888;50.228;7.828;2023-03-11T22:04:36;12.47;;;5.07;;
78589;SDS011;67888;50.228;7.828;2023-03-11T22:09:37;12.13;;;4.83;;
78589;SDS011;67888;50.228;7.828;2023-03-11T22:14:37;11.20;;;5.17;;
78589;SDS011;67888;50.228;7.828;2023-03-11T22:19:38;14.17;;;6.03;;
78589;SDS011;67888;50.228;7.828;2023-03-11T22:24:38;15.83;;;6.20;;
78589;SDS011;67888;50.228;7.828;2023-03-11T22:29:38;14.67;;;5.53;;
78589;SDS011;67888;50.228;7.828;2023-03-11T22:34:39;11.60;;;4.23;;
78589;SDS011;67888;50.228;7.828;2023-03-11T22:39:42;10.13;;;4.17;;
78589;SDS011;67888;50.228;7.828;2023-03-11T22:44:43;9.40;;;4.50;;
78589;SDS011;67888;50.228;7.828;2023-03-11T22:49:43;10.70;;;4.10;;
78589;SDS011;67888;50.228;7.828;2023-03-11T22:54:43;15.50;;;5.77;;
78589;SDS011;67888;50.228;7.828;2023-03-11T22:59:44;20.83;;;8.67;;
78589;SDS011;67888;50.228;7.828;2023-03-11T23:04:44;20.33;;;8.43;;
78589;SDS011;67888;50.228;7.828;2023-03-11T23:09:46;14.30;;;6.53;;
78589;SDS011;67888;50.228;7.828;2023-03-11T23:14:46;17.00;;;5.70;;
78589;SDS011;67888;50.228;7.828;2023-03-11T23:19:47;16.70;;;6.90;;
78589;SDS011;67888;50.228;7.828;2023-03-11T23:24:47;30.10;;;11.83;;
78589;SDS011;67888;50.228;7.828;2023-03-11T23:29:48;20.80;;;8.90;;
78589;SDS011;67888;50.228;7.828;2023-03-11T23:34:49;22.25;;;8.77;;
78589;SDS011;67888;50.228;7.828;2023-03-11T23:39:50;19.30;;;8.37;;
78589;SDS011;67888;50.228;7.828;2023-03-11T23:44:50;20.37;;;8.67;;
78589;SDS011;67888;50.228;7.828;2023-03-11T23:49:50;18.53;;;7.90;;
78589;SDS011;67888;50.228;7.828;2023-03-11T23:54:51;24.27;;;10.03;;
78589;SDS011;67888;50.228;7.828;2023-03-11T23:59:51;17.40;;;8.20;;
